Relevés horaires Plaffeien (Suisse)


Relevés horaires à Plaffeien - Mercredi 14 Janv. 2004
Heure UTC1 Température [°C] Vent [km/h] Hum. [%] Pres.4 [hPa] Visi. [Km] Nébu. [octa] Préc.5 [mm] Cond.
2m. Res. Ros. Dir.2 Vit. Moy. Raf.3
23:00 -1.2 -8 -2.3 O 29.6 -- -- 92 850 -- -- -- --
22:00 -0.9 -8 -1.2 O 33.3 -- -- 98 850 -- -- -- --
21:00 -0.3 -7.7 -1.2 OSO 38.9 51.9 70.4 94 850(-0.3/3h) -- -- -- --
20:00 2.0 -4.2 -2.1 SO 33.3 -- -- 74 850 -- -- -- --
19:00 2.1 -4.6 -2.9 OSO 40.7 -- -- 69 850 -- -- -- --
18:00 2.2 -4.4 -4.2 SSO 38.9 51.9 70.4 63 850(-2.5/3h) -- -- 0.2/12h
--
17:00 3.0 -4.1 -4.5 SO 50.0 -- -- 58 850 -- -- -- --
16:00 2.4 -3.5 -1.9 OSO 31.5 -- -- 73 850 -- -- -- --
15:00 2.4 -1.1 -1.4 ONO 13.0 -- -- 76 850 -- -- -- --
14:00 2.5 -1 -0.9 O 13.0 -- -- 78 850 -- -- -- --
13:00 2.4 -2 -1.2 O 18.5 -- -- 77 850 -- -- -- --
12:00 2.4 -1.7 -0.1 O 16.7 -- -- 84 850(-1.8/3h) -- -- -- --
11:00 2.7 -1.1 -0.7 O 14.8 -- -- 78 850 -- -- -- --
10:00 2.0 -1.9 -1.5 OSO 14.8 -- -- 78 850 -- -- -- --
09:00 1.7 -3.8 -0.9 OSO 25.9 -- 59.3 83 850(0.6/3h) -- -- -- --
08:00 1.7 -2.6 0.0 O 16.7 -- -- 88 850 -- -- -- --
07:00 1.3 -3.9 -0.1 OSO 22.2 -- -- 90 850 -- -- -- --
06:00 2.0 -3.2 -0.3 OSO 24.1 38.9 68.5 85 850(2.4/3h) -- -- 23/12h
--
05:00 2.3 -3.6 -0.3 OSO 31.5 -- -- 83 850 -- -- -- --
04:00 2.1 -3.5 1.2 O 27.8 -- -- 94 850 -- -- -- --
03:00 2.7 -2.7 2.0 O 27.8 68.5 103.7 95 850(3.3/3h) -- -- -- --
02:00 4.8 0.6 3.5 O 22.2 -- -- 91 850 -- -- -- --
01:00 5.8 0.6 5.0 O 37.0 -- -- 95 850 -- -- -- --

1 Coordinated Universal Time. Actuellement il est 23:00 locale et 21:00 UTC.

2 Le vent souffle depuis la direction indiquée vers la direction oposée.

3 Les rafales max. sont disponible 40 min après l'heure du relevé.

4 Pour les stations d'altitude (plus de 600m) le géopotentiel du niveau le plus proche de la pression obligatoire est indiqué.

5 Les stations disposant d'un diffuseur peuvent indiquer "trace". Cela signifie que des précipitations ont touchés le sol mais que la quantité est inférieure à 0.1 mm.

Copyright

Les données affichées sur cette page sont la propriété exclusive de Météo Suisse.

Récapitulatif de la journée
Température [°C] Vent [km/h] Ensoleillement4 [h] Precipitations totale5 [mm] Pression [Hpa]
Min1 Max.2 Moy.3 Max. Min Max.
1.8 3.3 52.8 103.7 1 h 42 min 3.2 850.0 850.0

1 Température minimale relevée entre 18:00 UTC la veille et 18:00 UTC le jour donné.

2 Température maximale relevée entre 06:00 UTC le jour donné et 06:00 UTC le lendemain.

3 Vent moyen de la journée basé sur les relevés horaires.

4 Ensoleillement en heures relevé entre 06:00 UTC la veille et 06:00 UTC le jour donné.

5 Précipitations totales tombées entre 06:00 UTC la jour donné et 06:00 UTC le lendemain.

Graphiques horaires